sensor_id;sensor_type;location;lat;lon;timestamp;pressure;altitude;pressure_sealevel;temperature;humidity
60055;BME280;45930;53.514;55.904;2023-02-18T00:00:17;49730.19;;;-149.77;48.54
60055;BME280;45930;53.514;55.904;2023-02-18T00:01:19;49779.72;;;-149.77;48.79
60055;BME280;45930;53.514;55.904;2023-02-18T00:02:21;49795.56;;;-149.77;48.96
60055;BME280;45930;53.514;55.904;2023-02-18T00:03:26;49781.69;;;-149.77;48.86
60055;BME280;45930;53.514;55.904;2023-02-18T00:04:28;49805.47;;;-149.77;48.86
60055;BME280;45930;53.514;55.904;2023-02-18T00:05:28;49748.03;;;-149.77;48.78
60055;BME280;45930;53.514;55.904;2023-02-18T00:06:32;49841.13;;;-149.77;48.45
60055;BME280;45930;53.514;55.904;2023-02-18T00:07:37;49801.50;;;-149.77;48.69
60055;BME280;45930;53.514;55.904;2023-02-18T00:08:38;49779.72;;;-149.77;48.75
60055;BME280;45930;53.514;55.904;2023-02-18T00:09:39;49791.59;;;-149.77;48.49
60055;BME280;45930;53.514;55.904;2023-02-18T00:10:40;49793.59;;;-149.77;48.71
60055;BME280;45930;53.514;55.904;2023-02-18T00:11:41;49821.31;;;-149.77;48.50
60055;BME280;45930;53.514;55.904;2023-02-18T00:12:42;49827.25;;;-149.77;48.88
60055;BME280;45930;53.514;55.904;2023-02-18T00:13:43;49795.56;;;-149.77;49.02
60055;BME280;45930;53.514;55.904;2023-02-18T00:14:51;49777.75;;;-149.77;48.91
60055;BME280;45930;53.514;55.904;2023-02-18T00:15:52;49795.56;;;-149.77;49.23
60055;BME280;45930;53.514;55.904;2023-02-18T00:16:52;49805.47;;;-149.77;48.98
60055;BME280;45930;53.514;55.904;2023-02-18T00:17:59;49805.47;;;-149.77;49.21
60055;BME280;45930;53.514;55.904;2023-02-18T00:19:06;49821.31;;;-149.77;48.99
60055;BME280;45930;53.514;55.904;2023-02-18T00:20:07;49803.50;;;-149.77;49.17
60055;BME280;45930;53.514;55.904;2023-02-18T00:21:08;49799.53;;;-149.77;49.00
60055;BME280;45930;53.514;55.904;2023-02-18T00:22:09;49805.47;;;-149.77;49.11
60055;BME280;45930;53.514;55.904;2023-02-18T00:23:09;49789.63;;;-149.77;49.01
60055;BME280;45930;53.514;55.904;2023-02-18T00:24:12;49797.56;;;-149.77;49.07
60055;BME280;45930;53.514;55.904;2023-02-18T00:25:16;49819.34;;;-149.77;48.91
60055;BME280;45930;53.514;55.904;2023-02-18T00:26:18;49821.31;;;-149.77;49.15
60055;BME280;45930;53.514;55.904;2023-02-18T00:27:19;49785.66;;;-149.77;48.96
60055;BME280;45930;53.514;55.904;2023-02-18T00:28:19;49797.56;;;-149.77;48.68
60055;BME280;45930;53.514;55.904;2023-02-18T00:29:20;49813.41;;;-149.77;48.36
60055;BME280;45930;53.514;55.904;2023-02-18T00:30:21;49843.13;;;-149.77;48.69
60055;BME280;45930;53.514;55.904;2023-02-18T00:31:27;49807.47;;;-149.77;48.16
60055;BME280;45930;53.514;55.904;2023-02-18T00:32:28;49761.88;;;-149.77;48.00
60055;BME280;45930;53.514;55.904;2023-02-18T00:33:29;49807.47;;;-149.77;48.10
60055;BME280;45930;53.514;55.904;2023-02-18T00:34:30;49809.44;;;-149.77;48.28
60055;BME280;45930;53.514;55.904;2023-02-18T00:35:30;49765.84;;;-149.77;48.10
60055;BME280;45930;53.514;55.904;2023-02-18T00:36:32;49823.31;;;-149.77;48.10
60055;BME280;45930;53.514;55.904;2023-02-18T00:37:32;49819.34;;;-149.77;48.41
60055;BME280;45930;53.514;55.904;2023-02-18T00:38:33;49823.31;;;-149.77;48.52
60055;BME280;45930;53.514;55.904;2023-02-18T00:39:34;49817.34;;;-149.77;48.37
60055;BME280;45930;53.514;55.904;2023-02-18T00:40:39;49803.50;;;-149.77;48.17
60055;BME280;45930;53.514;55.904;2023-02-18T00:41:40;49817.34;;;-149.77;48.75
60055;BME280;45930;53.514;55.904;2023-02-18T00:42:41;49795.56;;;-149.77;48.97
60055;BME280;45930;53.514;55.904;2023-02-18T00:43:42;49817.34;;;-149.77;48.48
60055;BME280;45930;53.514;55.904;2023-02-18T00:44:43;49833.22;;;-149.77;48.46
60055;BME280;45930;53.514;55.904;2023-02-18T00:45:44;49839.16;;;-149.77;48.83
60055;BME280;45930;53.514;55.904;2023-02-18T00:46:45;49823.31;;;-149.77;48.76
60055;BME280;45930;53.514;55.904;2023-02-18T00:47:47;49827.25;;;-149.77;48.89
60055;BME280;45930;53.514;55.904;2023-02-18T00:48:48;49799.53;;;-149.77;49.10
60055;BME280;45930;53.514;55.904;2023-02-18T00:49:49;49811.41;;;-149.77;49.04
60055;BME280;45930;53.514;55.904;2023-02-18T00:50:49;49813.41;;;-149.77;49.55
60055;BME280;45930;53.514;55.904;2023-02-18T00:51:50;49825.28;;;-149.77;49.41
60055;BME280;45930;53.514;55.904;2023-02-18T00:52:51;49817.34;;;-149.77;49.29
60055;BME280;45930;53.514;55.904;2023-02-18T00:53:52;49809.44;;;-149.77;49.65
60055;BME280;45930;53.514;55.904;2023-02-18T00:54:53;49795.56;;;-149.77;49.76
60055;BME280;45930;53.514;55.904;2023-02-18T00:55:54;49803.50;;;-149.77;49.66
60055;BME280;45930;53.514;55.904;2023-02-18T00:56:55;49777.75;;;-149.77;49.70
60055;BME280;45930;53.514;55.904;2023-02-18T00:57:55;49809.44;;;-149.77;49.40
60055;BME280;45930;53.514;55.904;2023-02-18T00:58:56;49809.44;;;-149.77;49.36
60055;BME280;45930;53.514;55.904;2023-02-18T00:59:57;49797.56;;;-149.77;48.84
60055;BME280;45930;53.514;55.904;2023-02-18T01:00:58;49849.06;;;-149.77;48.74
60055;BME280;45930;53.514;55.904;2023-02-18T01:01:58;49856.97;;;-149.77;47.94
60055;BME280;45930;53.514;55.904;2023-02-18T01:02:59;49823.31;;;-149.77;48.02
60055;BME280;45930;53.514;55.904;2023-02-18T01:04:00;49833.22;;;-149.77;47.99
60055;BME280;45930;53.514;55.904;2023-02-18T01:05:01;49856.97;;;-149.77;47.63
60055;BME280;45930;53.514;55.904;2023-02-18T01:06:03;49833.22;;;-149.77;48.51
60055;BME280;45930;53.514;55.904;2023-02-18T01:07:04;49856.97;;;-149.77;48.69
60055;BME280;45930;53.514;55.904;2023-02-18T01:08:07;49862.94;;;-149.77;48.86
60055;BME280;45930;53.514;55.904;2023-02-18T01:09:08;49841.13;;;-149.77;48.37
60055;BME280;45930;53.514;55.904;2023-02-18T01:10:09;49845.09;;;-149.77;48.59
60055;BME280;45930;53.514;55.904;2023-02-18T01:11:11;49845.09;;;-149.77;48.96
60055;BME280;45930;53.514;55.904;2023-02-18T01:12:12;49845.09;;;-149.77;48.35
60055;BME280;45930;53.514;55.904;2023-02-18T01:13:13;49870.84;;;-149.77;48.83
60055;BME280;45930;53.514;55.904;2023-02-18T01:14:14;49847.06;;;-149.77;48.72
60055;BME280;45930;53.514;55.904;2023-02-18T01:15:16;49827.25;;;-149.77;48.56
60055;BME280;45930;53.514;55.904;2023-02-18T01:16:17;49823.31;;;-149.77;48.85
60055;BME280;45930;53.514;55.904;2023-02-18T01:17:18;49835.19;;;-149.77;48.66
60055;BME280;45930;53.514;55.904;2023-02-18T01:18:19;49858.97;;;-149.77;49.25
60055;BME280;45930;53.514;55.904;2023-02-18T01:19:20;49823.31;;;-149.77;49.33
60055;BME280;45930;53.514;55.904;2023-02-18T01:20:21;49837.16;;;-149.77;49.15
60055;BME280;45930;53.514;55.904;2023-02-18T01:21:22;49835.19;;;-149.77;49.43
60055;BME280;45930;53.514;55.904;2023-02-18T01:22:23;49829.25;;;-149.77;48.79
60055;BME280;45930;53.514;55.904;2023-02-18T01:23:23;49853.03;;;-149.77;48.88
60055;BME280;45930;53.514;55.904;2023-02-18T01:24:24;49851.03;;;-149.77;49.11
60055;BME280;45930;53.514;55.904;2023-02-18T01:25:25;49807.47;;;-149.77;48.67
60055;BME280;45930;53.514;55.904;2023-02-18T01:26:26;49833.22;;;-149.77;49.05
60055;BME280;45930;53.514;55.904;2023-02-18T01:27:27;49843.13;;;-149.77;48.94
60055;BME280;45930;53.514;55.904;2023-02-18T01:28:28;49864.91;;;-149.77;48.34
60055;BME280;45930;53.514;55.904;2023-02-18T01:29:29;49841.13;;;-149.77;48.09
60055;BME280;45930;53.514;55.904;2023-02-18T01:30:30;49853.03;;;-149.77;48.79
60055;BME280;45930;53.514;55.904;2023-02-18T01:31:31;49849.06;;;-149.77;48.44
60055;BME280;45930;53.514;55.904;2023-02-18T01:32:32;49847.06;;;-149.77;48.54
60055;BME280;45930;53.514;55.904;2023-02-18T01:33:33;49851.03;;;-149.77;48.77
60055;BME280;45930;53.514;55.904;2023-02-18T01:34:33;49833.22;;;-149.77;49.31
60055;BME280;45930;53.514;55.904;2023-02-18T01:35:37;49868.88;;;-149.77;49.38
60055;BME280;45930;53.514;55.904;2023-02-18T01:36:38;49843.13;;;-149.77;49.30
60055;BME280;45930;53.514;55.904;2023-02-18T01:37:39;49868.88;;;-149.77;48.61
60055;BME280;45930;53.514;55.904;2023-02-18T01:38:40;49843.13;;;-149.77;49.32
60055;BME280;45930;53.514;55.904;2023-02-18T01:39:41;49845.09;;;-149.77;48.95
60055;BME280;45930;53.514;55.904;2023-02-18T01:40:50;49847.06;;;-149.77;49.16
60055;BME280;45930;53.514;55.904;2023-02-18T01:41:52;49849.06;;;-149.77;48.34
60055;BME280;45930;53.514;55.904;2023-02-18T01:42:52;49853.03;;;-149.77;49.39
60055;BME280;45930;53.514;55.904;2023-02-18T01:44:13;49833.22;;;-149.77;49.44
60055;BME280;45930;53.514;55.904;2023-02-18T01:45:42;49847.06;;;-149.77;49.26
60055;BME280;45930;53.514;55.904;2023-02-18T01:46:47;49841.13;;;-149.77;48.64
60055;BME280;45930;53.514;55.904;2023-02-18T01:47:49;49833.22;;;-149.77;48.88
60055;BME280;45930;53.514;55.904;2023-02-18T01:48:57;49845.09;;;-149.77;48.81
60055;BME280;45930;53.514;55.904;2023-02-18T01:49:59;49853.03;;;-149.77;48.02
60055;BME280;45930;53.514;55.904;2023-02-18T01:52:24;49823.31;;;-149.77;48.26
60055;BME280;45930;53.514;55.904;2023-02-18T01:53:35;49803.50;;;-149.77;47.95
60055;BME280;45930;53.514;55.904;2023-02-18T01:54:46;49860.94;;;-149.77;47.25
60055;BME280;45930;53.514;55.904;2023-02-18T01:55:48;49845.09;;;-149.77;47.58
60055;BME280;45930;53.514;55.904;2023-02-18T01:57:58;49886.69;;;-149.77;47.23
60055;BME280;45930;53.514;55.904;2023-02-18T01:59:02;49860.94;;;-149.77;47.10
60055;BME280;45930;53.514;55.904;2023-02-18T02:00:11;49892.63;;;-149.77;46.85
60055;BME280;45930;53.514;55.904;2023-02-18T02:01:13;49849.06;;;-149.77;47.81
60055;BME280;45930;53.514;55.904;2023-02-18T02:02:19;49872.84;;;-149.77;47.44
60055;BME280;45930;53.514;55.904;2023-02-18T02:03:20;49888.69;;;-149.77;48.18
60055;BME280;45930;53.514;55.904;2023-02-18T02:04:21;49884.72;;;-149.77;47.69
60055;BME280;45930;53.514;55.904;2023-02-18T02:05:22;49849.06;;;-149.77;48.18
60055;BME280;45930;53.514;55.904;2023-02-18T02:06:23;49878.78;;;-149.77;48.86
60055;BME280;45930;53.514;55.904;2023-02-18T02:07:26;49886.69;;;-149.77;49.22
60055;BME280;45930;53.514;55.904;2023-02-18T02:08:28;49860.94;;;-149.77;49.29
60055;BME280;45930;53.514;55.904;2023-02-18T02:09:30;49900.56;;;-149.77;48.92
60055;BME280;45930;53.514;55.904;2023-02-18T02:12:26;49880.75;;;-149.77;48.49
60055;BME280;45930;53.514;55.904;2023-02-18T02:16:11;49864.91;;;-149.77;48.71
60055;BME280;45930;53.514;55.904;2023-02-18T02:17:35;49872.84;;;-149.77;48.64
60055;BME280;45930;53.514;55.904;2023-02-18T02:18:59;49878.78;;;-149.77;49.03
60055;BME280;45930;53.514;55.904;2023-02-18T02:35:37;49898.59;;;-149.77;46.78
60055;BME280;45930;53.514;55.904;2023-02-18T02:44:51;49874.81;;;-149.77;48.50
60055;BME280;45930;53.514;55.904;2023-02-18T02:46:02;49898.59;;;-149.77;48.31
60055;BME280;45930;53.514;55.904;2023-02-18T02:47:25;49912.44;;;-149.77;48.16
60055;BME280;45930;53.514;55.904;2023-02-18T02:52:56;49904.53;;;-149.77;47.22
60055;BME280;45930;53.514;55.904;2023-02-18T02:54:25;49926.31;;;-149.77;46.90
60055;BME280;45930;53.514;55.904;2023-02-18T02:55:26;49936.22;;;-149.77;46.58
60055;BME280;45930;53.514;55.904;2023-02-18T02:56:28;49882.75;;;-149.77;46.86
60055;BME280;45930;53.514;55.904;2023-02-18T02:58:30;49876.78;;;-149.77;47.17
60055;BME280;45930;53.514;55.904;2023-02-18T02:59:31;49872.84;;;-149.77;47.46
60055;BME280;45930;53.514;55.904;2023-02-18T03:04:45;49900.56;;;-149.77;45.97
60055;BME280;45930;53.514;55.904;2023-02-18T03:11:15;49940.19;;;-149.77;47.16
60055;BME280;45930;53.514;55.904;2023-02-18T03:15:09;49896.59;;;-149.77;46.96
60055;BME280;45930;53.514;55.904;2023-02-18T03:19:13;49902.53;;;-149.77;47.01
60055;BME280;45930;53.514;55.904;2023-02-18T03:21:28;49898.59;;;-149.77;46.24
60055;BME280;45930;53.514;55.904;2023-02-18T03:22:34;49924.34;;;-149.77;46.02
60055;BME280;45930;53.514;55.904;2023-02-18T03:23:56;49914.44;;;-149.77;46.02
60055;BME280;45930;53.514;55.904;2023-02-18T03:24:58;49924.34;;;-149.77;46.13
60055;BME280;45930;53.514;55.904;2023-02-18T03:26:01;49880.75;;;-149.77;45.76
60055;BME280;45930;53.514;55.904;2023-02-18T03:27:34;49906.50;;;-149.77;45.83
60055;BME280;45930;53.514;55.904;2023-02-18T03:28:37;49950.09;;;-149.77;45.80
60055;BME280;45930;53.514;55.904;2023-02-18T03:29:44;49926.31;;;-149.77;45.73
60055;BME280;45930;53.514;55.904;2023-02-18T03:30:55;49916.41;;;-149.77;45.61
60055;BME280;45930;53.514;55.904;2023-02-18T03:32:02;49900.56;;;-149.77;45.58
60055;BME280;45930;53.514;55.904;2023-02-18T03:33:07;49924.34;;;-149.77;45.79
60055;BME280;45930;53.514;55.904;2023-02-18T03:34:12;49878.78;;;-149.77;45.63
60055;BME280;45930;53.514;55.904;2023-02-18T03:35:16;49894.63;;;-149.77;45.49
60055;BME280;45930;53.514;55.904;2023-02-18T03:36:19;49910.47;;;-149.77;45.30
60055;BME280;45930;53.514;55.904;2023-02-18T03:37:21;49916.41;;;-149.77;45.55
60055;BME280;45930;53.514;55.904;2023-02-18T03:38:30;49896.59;;;-149.77;45.74
60055;BME280;45930;53.514;55.904;2023-02-18T03:39:34;49908.50;;;-149.77;45.87
60055;BME280;45930;53.514;55.904;2023-02-18T03:40:35;49888.69;;;-149.77;45.66
60055;BME280;45930;53.514;55.904;2023-02-18T03:41:36;49908.50;;;-149.77;46.05
60055;BME280;45930;53.514;55.904;2023-02-18T03:42:37;49900.56;;;-149.77;46.48
60055;BME280;45930;53.514;55.904;2023-02-18T03:43:39;49916.41;;;-149.77;46.81
60055;BME280;45930;53.514;55.904;2023-02-18T03:44:40;49898.59;;;-149.77;46.76
60055;BME280;45930;53.514;55.904;2023-02-18T03:45:41;49888.69;;;-149.77;47.00
60055;BME280;45930;53.514;55.904;2023-02-18T03:46:43;49926.31;;;-149.77;47.04
60055;BME280;45930;53.514;55.904;2023-02-18T03:47:45;49942.16;;;-149.77;46.96
60055;BME280;45930;53.514;55.904;2023-02-18T03:48:45;49928.31;;;-149.77;46.76
60055;BME280;45930;53.514;55.904;2023-02-18T03:49:46;49908.50;;;-149.77;46.54
60055;BME280;45930;53.514;55.904;2023-02-18T03:50:47;49908.50;;;-149.77;46.33
60055;BME280;45930;53.514;55.904;2023-02-18T03:51:48;49904.53;;;-149.77;46.32
60055;BME280;45930;53.514;55.904;2023-02-18T03:52:48;49924.34;;;-149.77;45.68
60055;BME280;45930;53.514;55.904;2023-02-18T03:53:50;49922.34;;;-149.77;46.08
60055;BME280;45930;53.514;55.904;2023-02-18T03:54:51;49912.44;;;-149.77;45.83
60055;BME280;45930;53.514;55.904;2023-02-18T03:55:51;49920.38;;;-149.77;46.22
60055;BME280;45930;53.514;55.904;2023-02-18T03:56:52;49908.50;;;-149.77;45.79
60055;BME280;45930;53.514;55.904;2023-02-18T03:57:53;49940.19;;;-149.77;45.85
60055;BME280;45930;53.514;55.904;2023-02-18T03:58:54;49932.25;;;-149.77;45.20
60055;BME280;45930;53.514;55.904;2023-02-18T03:59:55;49920.38;;;-149.77;44.66
60055;BME280;45930;53.514;55.904;2023-02-18T04:00:56;49900.56;;;-149.77;44.57
60055;BME280;45930;53.514;55.904;2023-02-18T04:01:56;49936.22;;;-149.77;44.66
60055;BME280;45930;53.514;55.904;2023-02-18T04:02:57;49894.63;;;-149.77;45.16
60055;BME280;45930;53.514;55.904;2023-02-18T04:03:58;49908.50;;;-149.77;45.06
60055;BME280;45930;53.514;55.904;2023-02-18T04:05:00;49914.44;;;-149.77;44.58
60055;BME280;45930;53.514;55.904;2023-02-18T04:06:01;49950.09;;;-149.77;44.57
60055;BME280;45930;53.514;55.904;2023-02-18T04:07:02;49902.53;;;-149.77;44.87
60055;BME280;45930;53.514;55.904;2023-02-18T04:08:02;49902.53;;;-149.77;45.02
60055;BME280;45930;53.514;55.904;2023-02-18T04:09:05;49938.22;;;-149.77;44.53
60055;BME280;45930;53.514;55.904;2023-02-18T04:10:08;49944.16;;;-149.77;44.74
60055;BME280;45930;53.514;55.904;2023-02-18T04:11:09;49920.38;;;-149.77;45.45
60055;BME280;45930;53.514;55.904;2023-02-18T04:12:10;49920.38;;;-149.77;45.41
60055;BME280;45930;53.514;55.904;2023-02-18T04:13:11;49934.25;;;-149.77;45.73
60055;BME280;45930;53.514;55.904;2023-02-18T04:14:13;49924.34;;;-149.77;45.94
60055;BME280;45930;53.514;55.904;2023-02-18T04:15:14;49912.44;;;-149.77;45.72
60055;BME280;45930;53.514;55.904;2023-02-18T04:16:15;49924.34;;;-149.77;46.11
60055;BME280;45930;53.514;55.904;2023-02-18T04:17:15;49926.31;;;-149.77;45.86
60055;BME280;45930;53.514;55.904;2023-02-18T04:18:16;49866.88;;;-149.77;45.86
60055;BME280;45930;53.514;55.904;2023-02-18T04:19:18;49876.78;;;-149.77;45.76
60055;BME280;45930;53.514;55.904;2023-02-18T04:20:18;49890.66;;;-149.77;45.85
60055;BME280;45930;53.514;55.904;2023-02-18T04:21:19;49916.41;;;-149.77;45.88
60055;BME280;45930;53.514;55.904;2023-02-18T04:22:20;49920.38;;;-149.77;45.96
60055;BME280;45930;53.514;55.904;2023-02-18T04:23:21;49874.81;;;-149.77;45.95
60055;BME280;45930;53.514;55.904;2023-02-18T04:24:22;49872.84;;;-149.77;45.58
60055;BME280;45930;53.514;55.904;2023-02-18T04:25:23;49880.75;;;-149.77;45.43
60055;BME280;45930;53.514;55.904;2023-02-18T04:26:24;49878.78;;;-149.77;44.81
60055;BME280;45930;53.514;55.904;2023-02-18T04:27:24;49872.84;;;-149.77;44.56
60055;BME280;45930;53.514;55.904;2023-02-18T04:28:25;49880.75;;;-149.77;44.87
60055;BME280;45930;53.514;55.904;2023-02-18T04:29:26;49876.78;;;-149.77;44.85
60055;BME280;45930;53.514;55.904;2023-02-18T04:30:27;49886.69;;;-149.77;45.33
60055;BME280;45930;53.514;55.904;2023-02-18T04:31:28;49882.75;;;-149.77;44.98
60055;BME280;45930;53.514;55.904;2023-02-18T04:32:31;49864.91;;;-149.77;44.91
60055;BME280;45930;53.514;55.904;2023-02-18T04:33:32;49860.94;;;-149.77;44.93
60055;BME280;45930;53.514;55.904;2023-02-18T04:34:33;49872.84;;;-149.77;44.98
60055;BME280;45930;53.514;55.904;2023-02-18T04:35:33;49849.06;;;-149.77;45.27
60055;BME280;45930;53.514;55.904;2023-02-18T04:36:36;49872.84;;;-149.77;45.41
60055;BME280;45930;53.514;55.904;2023-02-18T04:37:36;49849.06;;;-149.77;45.07
60055;BME280;45930;53.514;55.904;2023-02-18T04:38:37;49827.25;;;-149.77;44.96
60055;BME280;45930;53.514;55.904;2023-02-18T04:39:41;49831.22;;;-149.77;44.76
60055;BME280;45930;53.514;55.904;2023-02-18T04:40:42;49819.34;;;-149.77;44.98
60055;BME280;45930;53.514;55.904;2023-02-18T04:41:42;49847.06;;;-149.77;44.05
60055;BME280;45930;53.514;55.904;2023-02-18T04:42:43;49849.06;;;-149.77;43.28
60055;BME280;45930;53.514;55.904;2023-02-18T04:43:44;49868.88;;;-149.77;43.04
60055;BME280;45930;53.514;55.904;2023-02-18T04:44:45;49870.84;;;-149.77;43.47
60055;BME280;45930;53.514;55.904;2023-02-18T04:45:45;49841.13;;;-149.77;44.18
60055;BME280;45930;53.514;55.904;2023-02-18T04:46:46;49845.09;;;-149.77;43.86
60055;BME280;45930;53.514;55.904;2023-02-18T04:47:47;49884.72;;;-149.77;44.21
60055;BME280;45930;53.514;55.904;2023-02-18T04:48:48;49835.19;;;-149.77;43.68
60055;BME280;45930;53.514;55.904;2023-02-18T04:49:48;49845.09;;;-149.77;44.18
60055;BME280;45930;53.514;55.904;2023-02-18T04:50:49;49799.53;;;-149.77;43.53
60055;BME280;45930;53.514;55.904;2023-02-18T04:51:50;49843.13;;;-149.77;43.44
60055;BME280;45930;53.514;55.904;2023-02-18T04:52:51;49839.16;;;-149.77;43.78
60055;BME280;45930;53.514;55.904;2023-02-18T04:53:51;49845.09;;;-149.77;43.54
60055;BME280;45930;53.514;55.904;2023-02-18T04:54:52;49837.16;;;-149.77;44.07
60055;BME280;45930;53.514;55.904;2023-02-18T04:55:53;49833.22;;;-149.77;44.14
60055;BME280;45930;53.514;55.904;2023-02-18T04:56:54;49827.25;;;-149.77;43.20
60055;BME280;45930;53.514;55.904;2023-02-18T04:57:55;49851.03;;;-149.77;43.61
60055;BME280;45930;53.514;55.904;2023-02-18T04:58:55;49781.69;;;-149.77;43.95
60055;BME280;45930;53.514;55.904;2023-02-18T04:59:56;49841.13;;;-149.77;43.20
60055;BME280;45930;53.514;55.904;2023-02-18T05:01:01;49825.28;;;-149.77;43.38
60055;BME280;45930;53.514;55.904;2023-02-18T05:02:03;49823.31;;;-149.77;43.40
60055;BME280;45930;53.514;55.904;2023-02-18T05:03:04;49817.34;;;-149.77;43.29
60055;BME280;45930;53.514;55.904;2023-02-18T05:04:04;49789.63;;;-149.77;43.10
60055;BME280;45930;53.514;55.904;2023-02-18T05:05:05;49813.41;;;-149.77;43.82
60055;BME280;45930;53.514;55.904;2023-02-18T05:06:06;49797.56;;;-149.77;43.67
60055;BME280;45930;53.514;55.904;2023-02-18T05:07:07;49811.41;;;-149.77;44.13
60055;BME280;45930;53.514;55.904;2023-02-18T05:08:08;49817.34;;;-149.77;43.85
60055;BME280;45930;53.514;55.904;2023-02-18T05:09:09;49805.47;;;-149.77;44.31
60055;BME280;45930;53.514;55.904;2023-02-18T05:10:15;49793.59;;;-149.77;43.89
60055;BME280;45930;53.514;55.904;2023-02-18T05:11:16;49813.41;;;-149.77;43.56
60055;BME280;45930;53.514;55.904;2023-02-18T05:12:17;49813.41;;;-149.77;43.90
60055;BME280;45930;53.514;55.904;2023-02-18T05:13:18;49740.09;;;-149.77;43.49
60055;BME280;45930;53.514;55.904;2023-02-18T05:14:19;49769.81;;;-149.77;43.38
60055;BME280;45930;53.514;55.904;2023-02-18T05:15:19;49753.97;;;-149.77;43.22
60055;BME280;45930;53.514;55.904;2023-02-18T05:16:20;49765.84;;;-149.77;43.03
60055;BME280;45930;53.514;55.904;2023-02-18T05:17:21;49757.94;;;-149.77;42.88
60055;BME280;45930;53.514;55.904;2023-02-18T05:18:24;49765.84;;;-149.77;42.82
60055;BME280;45930;53.514;55.904;2023-02-18T05:19:25;49757.94;;;-149.77;42.91
60055;BME280;45930;53.514;55.904;2023-02-18T05:20:26;49748.03;;;-149.77;42.67
60055;BME280;45930;53.514;55.904;2023-02-18T05:21:27;49734.16;;;-149.77;42.88
60055;BME280;45930;53.514;55.904;2023-02-18T05:22:27;49793.59;;;-149.77;42.98
60055;BME280;45930;53.514;55.904;2023-02-18T05:23:28;49718.31;;;-149.77;42.98
60055;BME280;45930;53.514;55.904;2023-02-18T05:24:29;49708.41;;;-149.77;42.83
60055;BME280;45930;53.514;55.904;2023-02-18T05:25:30;49738.13;;;-149.77;42.55
60055;BME280;45930;53.514;55.904;2023-02-18T05:26:30;49712.38;;;-149.77;42.52
60055;BME280;45930;53.514;55.904;2023-02-18T05:27:31;49726.22;;;-149.77;42.80
60055;BME280;45930;53.514;55.904;2023-02-18T05:28:32;49732.19;;;-149.77;42.78
60055;BME280;45930;53.514;55.904;2023-02-18T05:29:33;49730.19;;;-149.77;42.54
60055;BME280;45930;53.514;55.904;2023-02-18T05:30:34;49734.16;;;-149.77;42.66
60055;BME280;45930;53.514;55.904;2023-02-18T05:31:34;49718.31;;;-149.77;42.99
60055;BME280;45930;53.514;55.904;2023-02-18T05:32:37;49712.38;;;-149.77;42.67
60055;BME280;45930;53.514;55.904;2023-02-18T05:33:38;49710.38;;;-149.77;42.92
60055;BME280;45930;53.514;55.904;2023-02-18T05:34:39;49690.56;;;-149.77;42.22
60055;BME280;45930;53.514;55.904;2023-02-18T05:35:40;49694.53;;;-149.77;42.21
60055;BME280;45930;53.514;55.904;2023-02-18T05:36:40;49724.25;;;-149.77;42.53
60055;BME280;45930;53.514;55.904;2023-02-18T05:37:41;49674.72;;;-149.77;42.05
60055;BME280;45930;53.514;55.904;2023-02-18T05:38:42;49718.31;;;-149.77;42.25
60055;BME280;45930;53.514;55.904;2023-02-18T05:39:43;49678.69;;;-149.77;42.67
60055;BME280;45930;53.514;55.904;2023-02-18T05:40:44;49686.63;;;-149.77;42.30
60055;BME280;45930;53.514;55.904;2023-02-18T05:41:45;49686.63;;;-149.77;42.14
60055;BME280;45930;53.514;55.904;2023-02-18T05:42:46;49658.88;;;-149.77;42.44
60055;BME280;45930;53.514;55.904;2023-02-18T05:43:47;49680.66;;;-149.77;42.49
60055;BME280;45930;53.514;55.904;2023-02-18T05:45:06;49654.91;;;-149.77;42.55
60055;BME280;45930;53.514;55.904;2023-02-18T05:46:07;49670.75;;;-149.77;42.12
60055;BME280;45930;53.514;55.904;2023-02-18T05:47:10;49684.63;;;-149.77;42.14
60055;BME280;45930;53.514;55.904;2023-02-18T05:48:11;49641.06;;;-149.77;42.07
60055;BME280;45930;53.514;55.904;2023-02-18T05:49:12;49662.84;;;-149.77;41.88
60055;BME280;45930;53.514;55.904;2023-02-18T05:50:13;49647.00;;;-149.77;42.20
60055;BME280;45930;53.514;55.904;2023-02-18T05:51:14;49631.16;;;-149.77;42.22
60055;BME280;45930;53.514;55.904;2023-02-18T05:52:18;49639.06;;;-149.77;42.40
60055;BME280;45930;53.514;55.904;2023-02-18T05:53:19;49631.16;;;-149.77;42.25
60055;BME280;45930;53.514;55.904;2023-02-18T05:54:20;49637.09;;;-149.77;41.99
60055;BME280;45930;53.514;55.904;2023-02-18T05:55:21;49627.19;;;-149.77;41.72
60055;BME280;45930;53.514;55.904;2023-02-18T05:56:22;49639.06;;;-149.77;41.27
60055;BME280;45930;53.514;55.904;2023-02-18T05:57:23;49645.00;;;-149.77;41.19
60055;BME280;45930;53.514;55.904;2023-02-18T05:58:24;49621.25;;;-149.77;41.48
60055;BME280;45930;53.514;55.904;2023-02-18T05:59:25;49603.41;;;-149.77;41.37
60055;BME280;45930;53.514;55.904;2023-02-18T06:00:26;49605.38;;;-149.77;41.29
60055;BME280;45930;53.514;55.904;2023-02-18T06:01:29;49591.53;;;-149.77;40.52
60055;BME280;45930;53.514;55.904;2023-02-18T06:02:30;49639.06;;;-149.77;40.66
60055;BME280;45930;53.514;55.904;2023-02-18T06:03:30;49656.91;;;-149.77;40.88
60055;BME280;45930;53.514;55.904;2023-02-18T06:04:31;49623.22;;;-149.77;40.31
60055;BME280;45930;53.514;55.904;2023-02-18T06:05:32;49637.09;;;-149.77;40.00
60055;BME280;45930;53.514;55.904;2023-02-18T06:06:33;49619.25;;;-149.77;40.36
60055;BME280;45930;53.514;55.904;2023-02-18T06:07:34;49615.28;;;-149.77;40.45
60055;BME280;45930;53.514;55.904;2023-02-18T06:08:35;49627.19;;;-149.77;40.81
60055;BME280;45930;53.514;55.904;2023-02-18T06:09:36;49664.81;;;-149.77;41.05
60055;BME280;45930;53.514;55.904;2023-02-18T06:10:39;49647.00;;;-149.77;41.36